createdAt,value
2022-08-20T00:01:11.407Z,31.37
2022-08-20T00:03:40.853Z,31.90
2022-08-20T00:06:18.219Z,32.47
2022-08-20T00:08:46.577Z,28.17
2022-08-20T00:11:17.809Z,32.80
2022-08-20T00:13:54.533Z,33.70
2022-08-20T00:16:24.898Z,30.27
2022-08-20T00:18:51.876Z,34.13
2022-08-20T00:21:20.963Z,32.37
2022-08-20T00:23:52.401Z,31.70
2022-08-20T00:26:20.715Z,34.77
2022-08-20T00:28:47.895Z,33.13
2022-08-20T00:31:19.336Z,32.00
2022-08-20T00:33:47.551Z,32.33
2022-08-20T00:36:17.500Z,34.10
2022-08-20T00:38:46.477Z,36.30
2022-08-20T00:41:18.557Z,37.20
2022-08-20T00:43:50.275Z,35.87
2022-08-20T00:46:22.011Z,35.57
2022-08-20T00:48:59.420Z,36.60
2022-08-20T00:51:38.227Z,33.83
2022-08-20T00:54:18.227Z,36.50
2022-08-20T00:56:49.494Z,37.53
2022-08-20T00:59:21.326Z,36.40
2022-08-20T01:01:55.479Z,37.47
2022-08-20T01:04:25.170Z,35.50
2022-08-20T01:06:52.295Z,39.60
2022-08-20T01:09:49.973Z,37.57
2022-08-20T01:12:09.980Z,39.57
2022-08-20T01:14:46.586Z,39.60
2022-08-20T01:17:39.887Z,34.57
2022-08-20T01:20:56.386Z,38.20
2022-08-20T01:23:32.413Z,36.57
2022-08-20T01:26:06.087Z,34.17
2022-08-20T01:28:38.749Z,29.80
2022-08-20T01:31:08.567Z,33.37
2022-08-20T01:33:36.109Z,39.83
2022-08-20T01:36:04.792Z,40.27
2022-08-20T01:38:32.485Z,38.80
2022-08-20T01:41:14.904Z,41.40
2022-08-20T01:43:41.950Z,41.60
2022-08-20T01:46:10.439Z,44.77
2022-08-20T01:48:39.553Z,44.20
2022-08-20T01:51:14.437Z,44.37
2022-08-20T01:53:44.608Z,44.33
2022-08-20T01:56:16.784Z,43.20
2022-08-20T01:58:49.741Z,46.57
2022-08-20T02:01:28.510Z,40.50
2022-08-20T02:03:57.042Z,45.17
2022-08-20T02:06:26.301Z,44.20
2022-08-20T02:08:56.626Z,46.27
2022-08-20T02:11:24.142Z,43.53
2022-08-20T02:13:52.795Z,45.90
2022-08-20T02:16:23.074Z,47.07
2022-08-20T02:18:54.385Z,47.43
2022-08-20T02:21:23.649Z,46.17
2022-08-20T02:23:50.670Z,46.40
2022-08-20T02:26:19.248Z,39.07
2022-08-20T02:28:48.818Z,42.00
2022-08-20T02:31:18.233Z,45.20
2022-08-20T02:34:21.827Z,45.80
2022-08-20T02:36:32.913Z,43.53
2022-08-20T02:39:00.088Z,42.13
2022-08-20T02:41:27.107Z,46.67
2022-08-20T02:43:54.061Z,48.37
2022-08-20T02:46:21.319Z,43.53
2022-08-20T02:48:48.321Z,45.30
2022-08-20T02:51:15.323Z,47.47
2022-08-20T02:53:42.494Z,36.73
2022-08-20T02:56:11.428Z,45.30
2022-08-20T02:58:40.443Z,42.00
2022-08-20T03:01:11.888Z,44.07
2022-08-20T03:03:41.058Z,46.07
2022-08-20T03:06:09.823Z,46.87
2022-08-20T03:08:37.910Z,49.10
2022-08-20T03:11:06.363Z,48.10
2022-08-20T03:13:33.809Z,46.33
2022-08-20T03:16:03.028Z,47.07
2022-08-20T03:18:34.141Z,48.23
2022-08-20T03:21:01.419Z,46.40
2022-08-20T03:23:28.504Z,43.23
2022-08-20T03:25:55.711Z,39.30
2022-08-20T03:28:22.861Z,42.50
2022-08-20T03:30:51.347Z,41.37
2022-08-20T03:33:20.244Z,37.93
2022-08-20T03:35:47.811Z,38.10
2022-08-20T03:38:18.036Z,34.87
2022-08-20T03:40:48.749Z,36.93
2022-08-20T03:43:16.330Z,29.83
2022-08-20T03:45:45.404Z,28.73
2022-08-20T03:48:17.193Z,28.50
2022-08-20T03:50:45.807Z,25.30
2022-08-20T03:53:14.730Z,23.40
2022-08-20T03:55:44.100Z,22.10
2022-08-20T03:58:13.764Z,24.63
2022-08-20T04:00:47.764Z,21.60
2022-08-20T04:03:15.233Z,21.40
2022-08-20T04:05:43.014Z,19.20
2022-08-20T04:08:24.631Z,19.30
2022-08-20T04:10:51.972Z,18.90
2022-08-20T04:13:22.743Z,18.17
2022-08-20T04:15:55.260Z,16.33
2022-08-20T04:18:24.300Z,15.07
2022-08-20T04:20:52.958Z,16.80
2022-08-20T04:23:21.322Z,15.40
2022-08-20T04:25:49.162Z,11.90
2022-08-20T04:28:26.901Z,12.77
2022-08-20T04:30:55.630Z,14.87
2022-08-20T04:33:34.148Z,11.47
2022-08-20T04:36:05.507Z,10.60
2022-08-20T04:38:48.393Z,10.03
2022-08-20T04:41:21.075Z,11.60
2022-08-20T04:43:53.673Z,8.87
2022-08-20T04:46:21.913Z,7.30
2022-08-20T04:48:50.255Z,10.10
2022-08-20T04:51:18.583Z,9.30
2022-08-20T04:53:53.365Z,7.43
2022-08-20T04:56:32.977Z,8.13
2022-08-20T04:59:01.587Z,7.50
2022-08-20T05:01:29.501Z,8.20
2022-08-20T05:03:57.352Z,8.07
2022-08-20T05:06:28.580Z,7.67
2022-08-20T05:08:58.088Z,9.30
2022-08-20T05:11:32.999Z,8.57
2022-08-20T05:14:02.589Z,11.60
2022-08-20T05:16:29.760Z,15.43
2022-08-20T05:18:56.756Z,16.87
2022-08-20T05:21:23.730Z,18.80
2022-08-20T05:23:50.712Z,21.20
2022-08-20T05:26:20.317Z,22.77
2022-08-20T05:28:57.977Z,23.50
2022-08-20T05:31:32.024Z,25.53
2022-08-20T05:34:10.680Z,25.00
2022-08-20T05:36:48.214Z,21.57
2022-08-20T05:39:18.123Z,25.63
2022-08-20T05:41:45.138Z,22.13
2022-08-20T05:44:14.153Z,23.57
2022-08-20T05:46:43.498Z,21.80
2022-08-20T05:49:13.612Z,22.00
2022-08-20T05:51:40.746Z,18.40
2022-08-20T05:54:07.887Z,24.47
2022-08-20T05:56:36.037Z,25.83
2022-08-20T05:59:05.534Z,25.10
2022-08-20T06:01:34.302Z,25.23
2022-08-20T06:04:20.082Z,30.13
2022-08-20T06:06:47.677Z,30.20
2022-08-20T06:09:30.595Z,29.80
2022-08-20T06:12:02.094Z,23.17
2022-08-20T06:14:29.378Z,29.10
2022-08-20T06:17:03.020Z,31.27
2022-08-20T06:19:32.489Z,29.73
2022-08-20T06:22:00.828Z,28.60
2022-08-20T06:24:27.885Z,30.13
2022-08-20T06:27:00.151Z,27.73
2022-08-20T06:29:28.385Z,33.70
2022-08-20T06:31:56.078Z,29.50
2022-08-20T06:34:24.611Z,30.50
2022-08-20T06:36:51.913Z,32.00
2022-08-20T06:39:18.849Z,35.67
2022-08-20T06:41:45.931Z,35.50
2022-08-20T06:44:13.507Z,36.00
2022-08-20T06:46:40.983Z,37.70
2022-08-20T06:49:08.663Z,35.73
2022-08-20T06:51:37.408Z,38.97
2022-08-20T06:54:05.771Z,39.83
2022-08-20T06:56:33.630Z,38.97
2022-08-20T06:59:00.588Z,38.90
2022-08-20T07:01:27.696Z,42.77
2022-08-20T07:03:56.257Z,42.00
2022-08-20T07:06:26.979Z,40.20
2022-08-20T07:08:55.789Z,36.00
2022-08-20T07:11:27.734Z,43.20
2022-08-20T07:13:57.186Z,42.60
2022-08-20T07:16:24.661Z,42.77
2022-08-20T07:18:51.679Z,43.00
2022-08-20T07:21:18.702Z,43.20
2022-08-20T07:23:45.930Z,37.70
2022-08-20T07:26:13.412Z,42.07
2022-08-20T07:28:41.107Z,43.90
2022-08-20T07:31:26.996Z,43.03
2022-08-20T07:33:54.374Z,40.07
2022-08-20T07:36:21.560Z,42.50
2022-08-20T07:38:50.978Z,39.60
2022-08-20T07:41:19.028Z,39.63
2022-08-20T07:43:46.761Z,44.90
2022-08-20T07:46:15.824Z,40.07
2022-08-20T07:48:49.783Z,41.33
2022-08-20T07:51:19.462Z,45.70
2022-08-20T07:53:48.528Z,44.93
2022-08-20T07:56:19.354Z,43.07
2022-08-20T07:58:50.574Z,45.80
2022-08-20T08:01:25.693Z,46.30
2022-08-20T08:03:53.160Z,45.03
2022-08-20T08:06:29.741Z,46.00
2022-08-20T08:09:18.131Z,44.67
2022-08-20T08:11:51.849Z,39.47
2022-08-20T08:14:23.691Z,45.27
2022-08-20T08:16:52.917Z,42.33
2022-08-20T08:19:20.803Z,41.43
2022-08-20T08:21:48.012Z,45.67
2022-08-20T08:24:20.271Z,41.07
2022-08-20T08:26:50.120Z,50.67
2022-08-20T08:29:17.596Z,45.83
2022-08-20T08:31:44.915Z,45.10
2022-08-20T08:34:12.065Z,43.97
2022-08-20T08:36:40.286Z,45.83
2022-08-20T08:39:07.401Z,46.07
2022-08-20T08:41:50.235Z,46.77
2022-08-20T08:44:27.330Z,46.07
2022-08-20T08:47:01.199Z,41.17
2022-08-20T08:49:37.863Z,45.93
2022-08-20T08:52:28.711Z,37.30
2022-08-20T08:54:59.125Z,37.87
2022-08-20T08:57:26.686Z,39.23
2022-08-20T09:00:03.580Z,40.00
2022-08-20T09:02:33.081Z,43.73
2022-08-20T09:05:02.398Z,44.23
2022-08-20T09:07:33.141Z,46.20
2022-08-20T09:10:02.395Z,45.07
2022-08-20T09:12:29.482Z,43.23
2022-08-20T09:14:57.404Z,40.50
2022-08-20T09:17:24.543Z,40.60
2022-08-20T09:19:55.264Z,42.07
2022-08-20T09:22:27.435Z,42.03
2022-08-20T09:24:54.497Z,40.70
2022-08-20T09:27:21.622Z,39.63
2022-08-20T09:29:49.371Z,42.80
2022-08-20T09:32:24.509Z,40.73
2022-08-20T09:34:59.281Z,41.33
2022-08-20T09:37:35.164Z,39.00
2022-08-20T09:40:05.636Z,41.03
2022-08-20T09:42:40.257Z,40.27
2022-08-20T09:45:10.990Z,41.50
2022-08-20T09:47:39.833Z,41.87
2022-08-20T09:50:26.423Z,40.17
2022-08-20T09:52:55.055Z,41.80
2022-08-20T09:55:35.947Z,41.20
2022-08-20T09:58:08.297Z,41.07
2022-08-20T10:00:35.611Z,43.10
2022-08-20T10:03:03.440Z,38.67
2022-08-20T10:05:31.673Z,43.77
2022-08-20T10:07:58.999Z,42.40
2022-08-20T10:10:26.128Z,43.83
2022-08-20T10:12:55.008Z,43.77
2022-08-20T10:15:22.235Z,42.67
2022-08-20T10:17:49.252Z,41.70
2022-08-20T10:20:18.436Z,44.07
2022-08-20T10:22:45.731Z,40.10
2022-08-20T10:25:13.547Z,43.57
2022-08-20T10:27:40.702Z,39.37
2022-08-20T10:30:08.471Z,43.30
2022-08-20T10:32:35.560Z,42.23
2022-08-20T10:35:02.872Z,43.70
2022-08-20T10:37:29.957Z,44.60
2022-08-20T10:39:57.098Z,46.27
2022-08-20T10:42:24.204Z,44.30
2022-08-20T10:44:54.211Z,43.47
2022-08-20T10:47:23.011Z,41.50
2022-08-20T10:49:53.282Z,45.90
2022-08-20T10:52:22.714Z,43.40
2022-08-20T10:54:50.334Z,47.03
2022-08-20T10:57:21.508Z,44.30
2022-08-20T10:59:50.589Z,46.90
2022-08-20T11:02:18.511Z,47.40
2022-08-20T11:04:46.314Z,48.77
2022-08-20T11:07:21.222Z,45.07
2022-08-20T11:10:13.497Z,44.97
2022-08-20T11:12:41.045Z,48.30
2022-08-20T11:15:10.828Z,42.70
2022-08-20T11:17:41.012Z,47.23
2022-08-20T11:20:10.627Z,47.63
2022-08-20T11:22:37.998Z,47.90
2022-08-20T11:25:06.731Z,43.57
2022-08-20T11:27:39.162Z,49.57
2022-08-20T11:30:09.246Z,47.93
2022-08-20T11:32:36.763Z,38.77
2022-08-20T11:35:24.507Z,47.53
2022-08-20T11:37:53.865Z,43.73
2022-08-20T11:40:21.423Z,45.77
2022-08-20T11:43:12.690Z,49.57
2022-08-20T11:45:37.598Z,46.90
2022-08-20T11:48:05.576Z,47.63
2022-08-20T11:50:32.812Z,46.57
2022-08-20T11:53:01.499Z,46.03
2022-08-20T11:55:31.156Z,42.67
2022-08-20T11:58:00.993Z,45.17
2022-08-20T12:00:33.168Z,45.50
2022-08-20T12:03:02.232Z,46.00
2022-08-20T12:05:31.952Z,45.97
2022-08-20T12:08:01.291Z,45.20
2022-08-20T12:10:29.519Z,42.40
2022-08-20T12:12:56.885Z,43.23
2022-08-20T12:15:26.783Z,43.47
2022-08-20T12:17:54.144Z,41.17
2022-08-20T12:20:21.610Z,39.53
2022-08-20T12:22:48.771Z,41.50
2022-08-20T12:25:16.160Z,38.83
2022-08-20T12:27:43.142Z,42.37
2022-08-20T12:30:13.641Z,41.90
2022-08-20T12:32:41.005Z,43.40
2022-08-20T12:35:10.034Z,42.30
2022-08-20T12:37:37.698Z,42.90
2022-08-20T12:40:08.428Z,41.37
2022-08-20T12:42:35.829Z,40.50
2022-08-20T12:45:03.363Z,43.37
2022-08-20T12:47:35.893Z,44.30
2022-08-20T12:50:19.585Z,43.50
2022-08-20T12:52:48.247Z,40.00
2022-08-20T12:55:17.929Z,40.20
2022-08-20T12:57:56.645Z,44.27
2022-08-20T13:00:28.756Z,41.63
2022-08-20T13:02:59.576Z,43.60
2022-08-20T13:05:27.880Z,41.40
2022-08-20T13:07:55.614Z,41.90
2022-08-20T13:10:29.259Z,44.30
2022-08-20T13:12:57.033Z,44.00
2022-08-20T13:15:24.631Z,41.53
2022-08-20T13:17:56.896Z,42.63
2022-08-20T13:20:33.952Z,43.10
2022-08-20T13:23:04.421Z,39.33
2022-08-20T13:25:32.467Z,44.50
2022-08-20T13:28:02.372Z,30.80
2022-08-20T13:30:29.442Z,42.40
2022-08-20T13:32:56.676Z,43.03
2022-08-20T13:35:24.207Z,35.70
2022-08-20T13:37:51.734Z,42.73
2022-08-20T13:40:19.012Z,39.47
2022-08-20T13:42:47.261Z,37.43
2022-08-20T13:45:14.502Z,33.97
2022-08-20T13:47:42.821Z,37.00
2022-08-20T13:50:12.945Z,35.50
2022-08-20T13:52:42.558Z,33.20
2022-08-20T13:55:12.830Z,35.57
2022-08-20T13:57:40.610Z,34.90
2022-08-20T14:00:13.235Z,34.63
2022-08-20T14:02:41.872Z,32.70
2022-08-20T14:05:09.934Z,32.90
2022-08-20T14:07:38.115Z,31.10
2022-08-20T14:10:11.053Z,33.70
2022-08-20T14:12:38.416Z,24.70
2022-08-20T14:15:07.007Z,36.87
2022-08-20T14:17:39.969Z,38.03
2022-08-20T14:20:13.843Z,35.60
2022-08-20T14:22:42.854Z,34.43
2022-08-20T14:25:12.786Z,35.50
2022-08-20T14:27:40.019Z,33.33
2022-08-20T14:30:10.858Z,35.10
2022-08-20T14:32:38.172Z,27.80
2022-08-20T14:35:06.133Z,32.20
2022-08-20T14:37:38.064Z,24.73
2022-08-20T14:40:08.772Z,31.20
2022-08-20T14:42:36.537Z,28.67
2022-08-20T14:45:06.448Z,32.03
2022-08-20T14:47:39.005Z,28.93
2022-08-20T14:50:31.761Z,31.33
2022-08-20T14:52:59.686Z,32.40
2022-08-20T14:55:35.942Z,32.83
2022-08-20T14:58:07.550Z,28.47
2022-08-20T15:00:34.830Z,29.93
2022-08-20T15:03:02.348Z,31.90
2022-08-20T15:05:29.951Z,25.63
2022-08-20T15:07:58.452Z,26.00
2022-08-20T15:10:30.088Z,29.23
2022-08-20T15:12:58.135Z,26.90
2022-08-20T15:15:25.463Z,25.70
2022-08-20T15:17:57.154Z,28.43
2022-08-20T15:20:27.675Z,30.50
2022-08-20T15:22:55.439Z,32.37
2022-08-20T15:25:25.797Z,30.13
2022-08-20T15:27:59.641Z,32.63
2022-08-20T15:30:30.560Z,31.63
2022-08-20T15:32:57.941Z,29.80
2022-08-20T15:35:28.150Z,32.80
2022-08-20T15:37:56.897Z,30.43
2022-08-20T15:40:28.514Z,29.90
2022-08-20T15:42:58.370Z,29.20
2022-08-20T15:45:25.739Z,31.13
2022-08-20T15:48:01.998Z,32.63
2022-08-20T15:50:47.942Z,35.93
2022-08-20T15:53:43.242Z,35.47
2022-08-20T15:56:19.142Z,33.03
2022-08-20T15:59:09.644Z,32.00
2022-08-20T16:01:55.252Z,31.30
2022-08-20T16:04:45.227Z,29.27
2022-08-20T16:07:39.232Z,31.10
2022-08-20T16:10:38.919Z,30.07
2022-08-20T16:13:18.389Z,32.00
2022-08-20T16:15:49.461Z,32.17
2022-08-20T16:18:19.496Z,30.20
2022-08-20T16:20:50.029Z,34.70
2022-08-20T16:23:20.405Z,35.20
2022-08-20T16:26:20.528Z,37.17
2022-08-20T16:28:57.014Z,36.80
2022-08-20T16:31:31.088Z,37.40
2022-08-20T16:34:32.917Z,37.30
2022-08-20T16:37:15.955Z,33.77
2022-08-20T16:40:01.661Z,25.00
2022-08-20T16:42:36.367Z,30.00
2022-08-20T16:45:10.522Z,29.57
2022-08-20T16:47:40.826Z,30.83
2022-08-20T16:50:23.801Z,30.37
2022-08-20T16:52:51.822Z,30.93
2022-08-20T16:55:21.426Z,31.30
2022-08-20T16:57:48.952Z,33.57
2022-08-20T17:00:35.179Z,35.70
2022-08-20T17:03:05.805Z,34.10
2022-08-20T17:05:38.711Z,34.13
2022-08-20T17:08:08.787Z,36.90
2022-08-20T17:10:56.161Z,36.50
2022-08-20T17:13:30.450Z,36.27
2022-08-20T17:16:17.561Z,38.50
2022-08-20T17:18:50.849Z,41.67
2022-08-20T17:21:30.936Z,39.20
2022-08-20T17:24:04.158Z,42.60
2022-08-20T17:26:35.148Z,41.03
2022-08-20T17:29:24.199Z,40.90
2022-08-20T17:31:54.863Z,40.63
2022-08-20T17:34:32.054Z,41.60
2022-08-20T17:37:18.038Z,38.93
2022-08-20T17:39:47.995Z,37.80
2022-08-20T17:42:19.433Z,41.70
2022-08-20T17:44:52.928Z,38.50
2022-08-20T17:47:30.536Z,43.83
2022-08-20T17:50:08.339Z,40.57
2022-08-20T17:52:45.385Z,39.73
2022-08-20T17:55:13.534Z,38.57
2022-08-20T17:57:45.470Z,40.33
2022-08-20T18:00:25.663Z,37.17
2022-08-20T18:03:16.043Z,38.90
2022-08-20T18:05:47.640Z,39.90
2022-08-20T18:08:30.754Z,38.20
2022-08-20T18:11:01.015Z,39.03
2022-08-20T18:13:52.022Z,40.03
2022-08-20T18:16:45.920Z,40.87
2022-08-20T18:19:42.155Z,39.70
2022-08-20T18:22:16.302Z,41.50
2022-08-20T18:24:45.317Z,38.47
2022-08-20T18:27:21.761Z,39.03
2022-08-20T18:29:56.927Z,37.40
2022-08-20T18:32:32.056Z,37.23
2022-08-20T18:35:21.870Z,36.70
2022-08-20T18:37:49.334Z,34.90
2022-08-20T18:40:19.236Z,35.63
2022-08-20T18:42:46.929Z,37.53
2022-08-20T18:45:27.354Z,34.80
2022-08-20T18:47:54.469Z,34.00
2022-08-20T18:50:21.507Z,33.30
2022-08-20T18:52:52.054Z,32.20
2022-08-20T18:55:32.320Z,34.57
2022-08-20T18:58:06.624Z,35.10
2022-08-20T19:00:46.987Z,36.23
2022-08-20T19:03:35.949Z,35.87
2022-08-20T19:06:18.304Z,33.40
2022-08-20T19:08:55.128Z,34.50
2022-08-20T19:11:58.117Z,33.73
2022-08-20T19:14:57.339Z,30.90
2022-08-20T19:17:37.299Z,32.90
2022-08-20T19:20:11.347Z,32.50
2022-08-20T19:22:41.247Z,30.73
2022-08-20T19:25:19.849Z,32.50
2022-08-20T19:27:47.917Z,31.53
2022-08-20T19:30:15.001Z,32.23
2022-08-20T19:32:51.806Z,32.70
2022-08-20T19:35:19.243Z,30.03
2022-08-20T19:37:50.826Z,31.60
2022-08-20T19:40:46.922Z,31.10
2022-08-20T19:43:20.069Z,33.13
2022-08-20T19:45:54.433Z,31.83
2022-08-20T19:48:30.687Z,33.83
2022-08-20T19:51:20.361Z,34.90
2022-08-20T19:53:48.961Z,36.20
2022-08-20T19:56:22.570Z,34.03
2022-08-20T19:59:05.812Z,35.37
2022-08-20T20:01:33.788Z,37.50
2022-08-20T20:04:06.778Z,36.63
2022-08-20T20:06:41.662Z,40.23
2022-08-20T20:09:22.290Z,37.03
2022-08-20T20:11:54.409Z,38.47
2022-08-20T20:14:26.800Z,41.40
2022-08-20T20:16:54.605Z,43.90
2022-08-20T20:19:26.884Z,43.63
2022-08-20T20:22:04.069Z,44.77
2022-08-20T20:24:41.915Z,43.67
2022-08-20T20:27:22.266Z,43.77
2022-08-20T20:29:49.942Z,44.50
2022-08-20T20:32:21.503Z,46.50
2022-08-20T20:34:58.156Z,46.20
2022-08-20T20:37:48.891Z,46.77
2022-08-20T20:40:25.795Z,44.57
2022-08-20T20:43:12.396Z,45.13
2022-08-20T20:45:45.835Z,45.07
2022-08-20T20:48:24.398Z,44.90
2022-08-20T20:50:52.840Z,46.40
2022-08-20T20:53:51.308Z,45.27
2022-08-20T20:57:06.519Z,45.40
2022-08-20T20:59:36.339Z,46.00
2022-08-20T21:02:03.945Z,47.60
2022-08-20T21:04:31.080Z,44.97
2022-08-20T21:07:04.805Z,45.23
2022-08-20T21:09:31.995Z,44.37
2022-08-20T21:11:58.971Z,51.23
2022-08-20T21:14:26.259Z,41.70
2022-08-20T21:16:54.270Z,44.63
2022-08-20T21:19:21.696Z,46.60
2022-08-20T21:21:48.720Z,44.57
2022-08-20T21:24:15.824Z,48.77
2022-08-20T21:26:43.410Z,49.23
2022-08-20T21:29:13.314Z,47.97
2022-08-20T21:31:44.126Z,50.80
2022-08-20T21:34:13.236Z,52.67
2022-08-20T21:36:40.475Z,51.80
2022-08-20T21:39:07.587Z,53.70
2022-08-20T21:41:34.949Z,53.60
2022-08-20T21:44:26.338Z,54.20
2022-08-20T21:46:54.923Z,50.07
2022-08-20T21:49:23.077Z,48.43
2022-08-20T21:51:51.342Z,42.63
2022-08-20T21:54:19.446Z,44.77
2022-08-20T21:56:51.907Z,45.37
2022-08-20T21:59:21.340Z,43.73
2022-08-20T22:01:48.723Z,41.80
2022-08-20T22:04:15.865Z,42.10
2022-08-20T22:06:42.956Z,39.90
2022-08-20T22:09:10.912Z,37.83
2022-08-20T22:11:38.065Z,36.67
2022-08-20T22:14:08.178Z,38.23
2022-08-20T22:16:35.278Z,35.33
2022-08-20T22:19:02.595Z,31.47
2022-08-20T22:21:31.927Z,36.40
2022-08-20T22:24:01.485Z,35.93
2022-08-20T22:26:28.763Z,32.57
2022-08-20T22:28:56.113Z,36.67
2022-08-20T22:31:28.769Z,30.50
2022-08-20T22:33:56.619Z,34.10
2022-08-20T22:36:25.500Z,35.13
2022-08-20T22:38:55.961Z,32.20
2022-08-20T22:41:23.469Z,32.57
2022-08-20T22:43:56.586Z,35.00
2022-08-20T22:46:27.161Z,36.00
2022-08-20T22:48:55.194Z,28.80
2022-08-20T22:51:27.662Z,28.43
2022-08-20T22:53:54.822Z,37.00
2022-08-20T22:56:22.867Z,32.90
2022-08-20T22:58:50.447Z,33.07
2022-08-20T23:01:19.275Z,33.47
2022-08-20T23:03:46.758Z,34.50
2022-08-20T23:06:14.027Z,35.17
2022-08-20T23:08:42.126Z,33.77
2022-08-20T23:11:09.409Z,28.10
2022-08-20T23:13:36.517Z,33.67
2022-08-20T23:16:05.261Z,35.87
2022-08-20T23:18:32.289Z,32.10
2022-08-20T23:20:59.333Z,29.27
2022-08-20T23:23:27.381Z,36.60
2022-08-20T23:25:55.252Z,34.73
2022-08-20T23:28:24.714Z,35.00
2022-08-20T23:30:52.408Z,32.57
2022-08-20T23:33:19.751Z,37.90
2022-08-20T23:35:47.634Z,34.10
2022-08-20T23:38:14.780Z,36.10
2022-08-20T23:40:42.210Z,39.40
2022-08-20T23:43:09.925Z,34.77
2022-08-20T23:45:39.815Z,37.13
2022-08-20T23:48:07.926Z,38.17
2022-08-20T23:50:35.563Z,36.77
2022-08-20T23:53:04.012Z,23.30
2022-08-20T23:55:31.099Z,37.70
2022-08-20T23:57:58.223Z,36.60
